createdAt,value
2023-03-29T00:01:07.627Z,13.50
2023-03-29T00:03:34.428Z,13.01
2023-03-29T00:06:01.237Z,12.86
2023-03-29T00:08:27.822Z,12.85
2023-03-29T00:10:57.103Z,13.47
2023-03-29T00:13:23.681Z,13.46
2023-03-29T00:15:50.673Z,13.59
2023-03-29T00:18:18.232Z,13.66
2023-03-29T00:20:44.775Z,13.54
2023-03-29T00:23:11.689Z,12.55
2023-03-29T00:25:38.484Z,12.63
2023-03-29T00:28:04.955Z,12.82
2023-03-29T00:30:32.428Z,12.18
2023-03-29T00:32:59.250Z,12.17
2023-03-29T00:35:27.611Z,11.70
2023-03-29T00:37:54.904Z,12.45
2023-03-29T00:40:23.888Z,13.08
2023-03-29T00:42:50.737Z,13.47
2023-03-29T00:45:17.620Z,13.52
2023-03-29T00:47:44.503Z,13.77
2023-03-29T00:50:11.366Z,13.62
2023-03-29T00:52:38.246Z,11.52
2023-03-29T00:55:04.763Z,12.08
2023-03-29T00:57:31.944Z,12.53
2023-03-29T00:59:59.519Z,12.44
2023-03-29T01:02:26.166Z,12.12
2023-03-29T01:04:52.640Z,13.08
2023-03-29T01:07:19.425Z,12.69
2023-03-29T01:09:46.927Z,11.64
2023-03-29T01:12:13.535Z,12.21
2023-03-29T01:14:40.365Z,12.04
2023-03-29T01:17:07.168Z,11.81
2023-03-29T01:19:33.756Z,12.32
2023-03-29T01:22:00.666Z,12.21
2023-03-29T01:24:29.687Z,12.70
2023-03-29T01:29:41.885Z,12.47
2023-03-29T01:32:08.800Z,11.50
2023-03-29T01:34:35.618Z,11.16
2023-03-29T01:37:02.415Z,11.41
2023-03-29T01:39:29.988Z,11.09
2023-03-29T01:41:56.732Z,12.19
2023-03-29T01:44:23.290Z,12.15
2023-03-29T01:46:50.087Z,12.86
2023-03-29T01:49:16.667Z,12.88
2023-03-29T01:51:45.078Z,13.47
2023-03-29T01:54:11.649Z,12.67
2023-03-29T01:56:38.481Z,12.34
2023-03-29T01:59:05.279Z,12.13
2023-03-29T02:01:41.543Z,12.87
2023-03-29T02:04:08.423Z,13.45
2023-03-29T02:06:34.957Z,13.15
2023-03-29T02:09:07.891Z,13.76
2023-03-29T02:11:35.489Z,12.73
2023-03-29T02:16:33.864Z,12.55
2023-03-29T02:19:00.413Z,12.82
2023-03-29T02:21:28.250Z,13.36
2023-03-29T02:23:55.234Z,13.50
2023-03-29T02:26:23.242Z,13.70
2023-03-29T02:28:52.353Z,14.13
2023-03-29T02:31:19.240Z,13.43
2023-03-29T02:33:45.861Z,11.94
2023-03-29T02:36:12.669Z,12.21
2023-03-29T02:38:40.063Z,13.28
2023-03-29T02:41:06.996Z,13.29
2023-03-29T02:46:23.768Z,12.38
2023-03-29T02:48:53.172Z,13.25
2023-03-29T02:51:20.922Z,12.80
2023-03-29T02:53:48.522Z,12.07
2023-03-29T02:56:16.096Z,12.93
2023-03-29T02:58:43.664Z,13.58
2023-03-29T03:01:10.529Z,14.03
2023-03-29T03:03:37.267Z,13.89
2023-03-29T03:06:04.029Z,13.90
2023-03-29T03:08:30.727Z,13.77
2023-03-29T03:10:57.596Z,12.68
2023-03-29T03:13:24.436Z,12.51
2023-03-29T03:15:51.045Z,13.25
2023-03-29T03:18:17.679Z,13.05
2023-03-29T03:20:44.758Z,12.52
2023-03-29T03:23:15.545Z,12.55
2023-03-29T03:25:42.374Z,13.48
2023-03-29T03:28:11.327Z,14.04
2023-03-29T03:30:38.466Z,14.35
2023-03-29T03:33:05.396Z,14.27
2023-03-29T03:35:35.169Z,13.93
2023-03-29T03:38:02.471Z,13.04
2023-03-29T03:40:29.021Z,13.27
2023-03-29T03:42:56.196Z,13.11
2023-03-29T03:45:22.921Z,12.66
2023-03-29T03:47:50.707Z,11.77
2023-03-29T03:50:17.354Z,11.95
2023-03-29T03:52:43.995Z,12.55
2023-03-29T03:55:10.876Z,12.40
2023-03-29T03:57:37.708Z,12.52
2023-03-29T04:00:06.748Z,12.88
2023-03-29T04:02:33.481Z,12.85
2023-03-29T04:05:01.068Z,12.49
2023-03-29T04:07:31.708Z,12.90
2023-03-29T04:10:00.882Z,13.45
2023-03-29T04:12:27.731Z,12.99
2023-03-29T04:14:54.521Z,12.11
2023-03-29T04:17:21.074Z,12.39
2023-03-29T04:19:49.377Z,12.50
2023-03-29T04:22:20.126Z,12.36
2023-03-29T04:24:46.822Z,12.46
2023-03-29T04:27:14.029Z,12.38
2023-03-29T04:29:40.780Z,12.28
2023-03-29T04:32:07.588Z,12.60
2023-03-29T04:34:34.473Z,11.51
2023-03-29T04:37:03.499Z,12.20
2023-03-29T04:39:31.008Z,12.13
2023-03-29T04:44:48.257Z,11.10
2023-03-29T04:47:15.751Z,10.68
2023-03-29T04:49:44.797Z,10.69
2023-03-29T04:52:12.695Z,10.44
2023-03-29T04:54:39.876Z,10.15
2023-03-29T04:57:06.825Z,10.07
2023-03-29T04:59:33.677Z,10.40
2023-03-29T05:02:00.641Z,10.17
2023-03-29T05:04:28.317Z,10.59
2023-03-29T05:06:54.893Z,10.61
2023-03-29T05:09:21.478Z,10.53
2023-03-29T05:11:48.324Z,10.76
2023-03-29T05:14:15.337Z,10.98
2023-03-29T05:16:44.382Z,11.83
2023-03-29T05:19:11.303Z,12.18
2023-03-29T05:21:38.112Z,12.47
2023-03-29T05:24:07.086Z,12.89
2023-03-29T05:26:34.403Z,13.26
2023-03-29T05:35:03.487Z,13.69
2023-03-29T05:37:31.484Z,13.96
2023-03-29T05:40:06.133Z,13.91
2023-03-29T05:42:33.258Z,14.41
2023-03-29T05:45:00.499Z,14.67
2023-03-29T05:47:29.113Z,14.76
2023-03-29T05:49:58.033Z,14.86
2023-03-29T05:52:25.009Z,14.72
2023-03-29T05:54:59.110Z,14.89
2023-03-29T05:57:40.002Z,14.89
2023-03-29T06:00:14.497Z,15.01
2023-03-29T06:02:42.057Z,14.76
2023-03-29T06:05:08.948Z,15.12
2023-03-29T06:07:35.768Z,15.22
2023-03-29T06:10:04.115Z,15.18
2023-03-29T06:12:30.995Z,15.40
2023-03-29T06:15:01.129Z,15.36
2023-03-29T06:17:27.836Z,15.51
2023-03-29T06:19:56.700Z,15.62
2023-03-29T06:22:28.970Z,15.61
2023-03-29T06:24:55.594Z,15.68
2023-03-29T06:27:30.017Z,15.60
2023-03-29T06:29:57.866Z,15.74
2023-03-29T06:32:25.553Z,15.65
2023-03-29T06:34:54.625Z,15.72
2023-03-29T06:37:29.020Z,15.74
2023-03-29T06:39:58.127Z,15.48
2023-03-29T06:42:25.045Z,15.60
2023-03-29T06:44:52.656Z,15.73
2023-03-29T06:47:21.805Z,15.85
2023-03-29T06:49:50.479Z,15.77
2023-03-29T06:52:17.290Z,14.83
2023-03-29T06:54:48.508Z,15.06
2023-03-29T06:57:17.010Z,15.02
2023-03-29T06:59:52.134Z,15.56
2023-03-29T07:02:19.005Z,15.44
2023-03-29T07:04:47.797Z,14.70
2023-03-29T07:07:14.901Z,15.52
2023-03-29T07:09:41.825Z,15.23
2023-03-29T07:12:10.275Z,14.42
2023-03-29T07:14:41.692Z,14.79
2023-03-29T07:17:08.869Z,14.42
2023-03-29T07:19:36.696Z,15.07
2023-03-29T07:22:04.412Z,15.55
2023-03-29T07:24:33.830Z,15.72
2023-03-29T07:27:04.414Z,15.53
2023-03-29T07:29:31.514Z,15.69
2023-03-29T07:31:58.737Z,15.78
2023-03-29T07:34:25.301Z,15.57
2023-03-29T07:36:52.398Z,14.95
2023-03-29T07:39:19.429Z,15.21
2023-03-29T07:41:46.685Z,15.03
2023-03-29T07:44:20.692Z,15.07
2023-03-29T07:46:49.361Z,14.82
2023-03-29T07:49:23.411Z,14.57
2023-03-29T07:51:50.293Z,13.33
2023-03-29T07:54:17.180Z,13.17
2023-03-29T07:56:44.007Z,14.10
2023-03-29T07:59:10.916Z,14.15
2023-03-29T08:01:45.042Z,13.93
2023-03-29T08:06:52.764Z,13.62
2023-03-29T08:09:20.350Z,14.16
2023-03-29T08:11:49.095Z,14.91
2023-03-29T08:14:23.127Z,14.65
2023-03-29T08:16:57.325Z,14.13
2023-03-29T08:19:25.462Z,14.34
2023-03-29T08:21:52.968Z,14.24
2023-03-29T08:24:21.010Z,14.24
2023-03-29T08:26:48.723Z,14.96
2023-03-29T08:29:21.437Z,15.17
2023-03-29T08:31:48.462Z,15.18
2023-03-29T08:34:16.014Z,16.02
2023-03-29T08:36:44.792Z,16.28
2023-03-29T08:39:11.683Z,16.10
2023-03-29T08:41:42.257Z,15.73
2023-03-29T08:44:12.591Z,16.60
2023-03-29T08:46:39.734Z,17.07
2023-03-29T08:49:07.363Z,16.71
2023-03-29T08:51:34.944Z,16.91
2023-03-29T08:54:03.765Z,15.96
2023-03-29T08:56:32.835Z,15.53
2023-03-29T08:59:03.916Z,16.78
2023-03-29T09:01:31.563Z,16.78
2023-03-29T09:03:58.582Z,17.05
2023-03-29T09:06:26.892Z,16.96
2023-03-29T09:08:55.234Z,17.35
2023-03-29T09:11:23.434Z,17.20
2023-03-29T09:13:51.049Z,17.62
2023-03-29T09:16:25.018Z,17.91
2023-03-29T09:18:51.637Z,18.19
2023-03-29T09:21:18.392Z,17.76
2023-03-29T09:23:45.756Z,17.73
2023-03-29T09:26:13.367Z,18.02
2023-03-29T09:28:40.173Z,18.14
2023-03-29T09:31:06.949Z,18.17
2023-03-29T09:33:34.624Z,17.24
2023-03-29T09:36:02.182Z,16.48
2023-03-29T09:38:29.792Z,16.81
2023-03-29T09:40:59.113Z,17.18
2023-03-29T09:43:28.225Z,17.19
2023-03-29T09:45:56.816Z,17.22
2023-03-29T09:48:23.416Z,16.30
2023-03-29T09:50:52.361Z,16.50
2023-03-29T09:53:27.776Z,16.19
2023-03-29T09:55:56.361Z,15.96
2023-03-29T09:58:23.855Z,16.93
2023-03-29T10:00:50.860Z,15.76
2023-03-29T10:03:17.823Z,15.68
2023-03-29T10:05:44.570Z,16.00
2023-03-29T10:08:14.441Z,16.41
2023-03-29T10:10:41.824Z,16.86
2023-03-29T10:13:09.196Z,16.78
2023-03-29T10:15:37.982Z,17.13
2023-03-29T10:18:04.878Z,17.21
2023-03-29T10:20:32.047Z,16.21
2023-03-29T10:22:59.361Z,16.35
2023-03-29T10:25:26.018Z,17.06
2023-03-29T10:27:54.043Z,17.46
2023-03-29T10:30:23.812Z,17.84
2023-03-29T10:32:52.075Z,16.98
2023-03-29T10:35:26.162Z,17.01
2023-03-29T10:37:54.860Z,17.34
2023-03-29T10:40:21.600Z,17.52
2023-03-29T10:42:48.558Z,17.97
2023-03-29T10:45:15.142Z,18.18
2023-03-29T10:47:42.519Z,18.20
2023-03-29T10:50:09.289Z,17.60
2023-03-29T10:52:36.100Z,16.64
2023-03-29T10:55:03.983Z,15.99
2023-03-29T10:57:31.653Z,15.80
2023-03-29T11:02:38.905Z,16.58
2023-03-29T11:05:05.654Z,15.75
2023-03-29T11:07:32.665Z,16.28
2023-03-29T11:09:59.328Z,16.74
2023-03-29T11:12:26.080Z,17.10
2023-03-29T11:14:53.005Z,17.18
2023-03-29T11:17:21.958Z,16.63
2023-03-29T11:19:48.855Z,15.47
2023-03-29T11:22:15.668Z,15.00
2023-03-29T11:24:44.563Z,15.51
2023-03-29T11:27:11.981Z,16.24
2023-03-29T11:29:39.037Z,15.93
2023-03-29T11:32:05.551Z,15.88
2023-03-29T11:34:32.133Z,16.13
2023-03-29T11:37:00.816Z,15.61
2023-03-29T11:39:27.432Z,15.09
2023-03-29T11:41:54.420Z,15.26
2023-03-29T11:44:21.914Z,16.09
2023-03-29T11:46:48.877Z,16.70
2023-03-29T11:49:15.600Z,16.70
2023-03-29T11:51:42.417Z,16.57
2023-03-29T11:54:09.859Z,16.76
2023-03-29T11:56:37.732Z,16.28
2023-03-29T11:59:04.501Z,16.01
2023-03-29T12:01:30.938Z,15.62
2023-03-29T12:04:00.055Z,16.23
2023-03-29T12:06:26.994Z,16.26
2023-03-29T12:08:53.948Z,16.09
2023-03-29T12:11:22.493Z,16.11
2023-03-29T12:13:52.247Z,15.98
2023-03-29T12:16:19.389Z,16.21
2023-03-29T12:18:46.318Z,15.09
2023-03-29T12:21:13.464Z,16.13
2023-03-29T12:23:40.689Z,15.95
2023-03-29T12:26:09.027Z,16.64
2023-03-29T12:28:43.123Z,16.81
2023-03-29T12:31:09.769Z,17.52
2023-03-29T12:33:36.396Z,17.13
2023-03-29T12:36:04.500Z,16.83
2023-03-29T12:38:31.222Z,16.43
2023-03-29T12:41:05.563Z,16.98
2023-03-29T12:43:33.725Z,17.18
2023-03-29T12:46:00.343Z,17.79
2023-03-29T12:48:30.192Z,17.78
2023-03-29T12:50:57.067Z,18.59
2023-03-29T12:53:24.766Z,18.98
2023-03-29T12:55:55.797Z,19.42
2023-03-29T12:58:22.771Z,19.19
2023-03-29T13:00:50.133Z,18.96
2023-03-29T13:03:18.779Z,19.49
2023-03-29T13:05:49.295Z,19.94
2023-03-29T13:08:18.313Z,20.01
2023-03-29T13:10:45.172Z,20.18
2023-03-29T13:13:12.657Z,20.05
2023-03-29T13:15:39.576Z,20.35
2023-03-29T13:18:08.150Z,19.74
2023-03-29T13:20:41.596Z,20.13
2023-03-29T13:23:09.217Z,19.52
2023-03-29T13:25:35.811Z,18.71
2023-03-29T13:28:03.209Z,18.87
2023-03-29T13:30:32.839Z,19.76
2023-03-29T13:33:00.382Z,20.10
2023-03-29T13:35:33.984Z,20.38
2023-03-29T13:38:01.352Z,20.65
2023-03-29T13:40:30.110Z,20.76
2023-03-29T13:45:40.209Z,21.20
2023-03-29T13:48:07.325Z,21.22
2023-03-29T13:50:35.576Z,21.43
2023-03-29T13:53:03.196Z,21.48
2023-03-29T13:55:32.752Z,21.27
2023-03-29T13:57:59.835Z,20.26
2023-03-29T14:00:31.234Z,20.39
2023-03-29T14:02:58.251Z,20.25
2023-03-29T14:05:27.605Z,20.10
2023-03-29T14:07:54.506Z,20.95
2023-03-29T14:10:24.761Z,21.12
2023-03-29T14:12:54.351Z,21.01
2023-03-29T14:15:23.806Z,21.23
2023-03-29T14:17:50.618Z,20.73
2023-03-29T14:20:21.107Z,21.38
2023-03-29T14:22:48.821Z,21.50
2023-03-29T14:25:15.576Z,20.73
2023-03-29T14:27:42.360Z,21.19
2023-03-29T14:30:09.181Z,21.42
2023-03-29T14:32:39.333Z,21.35
2023-03-29T14:35:10.499Z,21.38
2023-03-29T14:37:37.065Z,21.57
2023-03-29T14:40:04.517Z,21.76
2023-03-29T14:42:32.180Z,21.60
2023-03-29T14:45:00.971Z,21.71
2023-03-29T14:47:30.443Z,21.78
2023-03-29T14:49:58.108Z,21.79
2023-03-29T14:52:28.331Z,21.57
2023-03-29T14:54:55.976Z,21.58
2023-03-29T14:57:25.778Z,21.54
2023-03-29T14:59:52.688Z,21.65
2023-03-29T15:02:21.398Z,21.61
2023-03-29T15:04:48.954Z,20.53
2023-03-29T15:07:15.506Z,21.06
2023-03-29T15:09:42.454Z,21.25
2023-03-29T15:12:10.738Z,21.14
2023-03-29T15:14:38.021Z,21.20
2023-03-29T15:17:06.008Z,21.46
2023-03-29T15:19:32.792Z,21.42
2023-03-29T15:22:02.544Z,21.62
2023-03-29T15:24:30.550Z,21.78
2023-03-29T15:26:57.140Z,21.79
2023-03-29T15:29:29.065Z,21.91
2023-03-29T15:31:59.369Z,21.84
2023-03-29T15:34:26.085Z,21.70
2023-03-29T15:36:53.554Z,21.58
2023-03-29T15:39:20.113Z,21.59
2023-03-29T15:41:49.557Z,21.38
2023-03-29T15:44:17.370Z,21.47
2023-03-29T15:46:43.975Z,20.92
2023-03-29T15:49:13.041Z,20.92
2023-03-29T15:51:39.781Z,21.08
2023-03-29T15:54:06.719Z,20.32
2023-03-29T15:56:33.548Z,19.70
2023-03-29T15:59:00.104Z,19.78
2023-03-29T16:01:27.089Z,19.66
2023-03-29T16:03:53.995Z,20.03
2023-03-29T16:06:20.767Z,20.21
2023-03-29T16:08:47.345Z,19.85
2023-03-29T16:11:14.745Z,20.08
2023-03-29T16:13:41.196Z,20.29
2023-03-29T16:16:08.188Z,20.37
2023-03-29T16:18:40.333Z,20.24
2023-03-29T16:21:08.415Z,20.60
2023-03-29T16:23:35.987Z,21.09
2023-03-29T16:26:03.046Z,21.09
2023-03-29T16:28:30.075Z,20.89
2023-03-29T16:30:56.963Z,21.05
2023-03-29T16:33:23.794Z,20.65
2023-03-29T16:35:50.640Z,20.90
2023-03-29T16:38:17.513Z,20.78
2023-03-29T16:40:45.130Z,20.41
2023-03-29T16:43:14.132Z,20.31
2023-03-29T16:45:41.594Z,20.04
2023-03-29T16:48:09.321Z,20.08
2023-03-29T16:50:36.206Z,19.93
2023-03-29T16:53:03.096Z,19.83
2023-03-29T16:55:30.546Z,19.99
2023-03-29T16:57:57.071Z,20.27
2023-03-29T17:00:25.062Z,20.71
2023-03-29T17:02:51.881Z,20.83
2023-03-29T17:05:18.994Z,20.50
2023-03-29T17:07:47.004Z,20.65
2023-03-29T17:10:13.629Z,20.88
2023-03-29T17:12:59.592Z,20.92
2023-03-29T17:15:37.386Z,20.86
2023-03-29T17:18:06.154Z,20.96
2023-03-29T17:20:33.030Z,20.93
2023-03-29T17:22:59.893Z,20.98
2023-03-29T17:25:26.697Z,20.93
2023-03-29T17:27:53.592Z,20.79
2023-03-29T17:30:20.968Z,20.41
2023-03-29T17:32:48.416Z,20.30
2023-03-29T17:35:17.577Z,20.12
2023-03-29T17:37:44.148Z,20.41
2023-03-29T17:40:10.630Z,20.55
2023-03-29T17:42:37.427Z,20.31
2023-03-29T17:45:05.789Z,19.96
2023-03-29T17:47:33.611Z,19.58
2023-03-29T17:50:00.441Z,19.44
2023-03-29T17:52:26.987Z,19.79
2023-03-29T17:54:53.603Z,20.13
2023-03-29T17:57:20.489Z,20.20
2023-03-29T17:59:48.030Z,20.34
2023-03-29T18:02:17.131Z,19.95
2023-03-29T18:04:43.942Z,19.61
2023-03-29T18:07:10.535Z,20.02
2023-03-29T18:09:38.045Z,20.13
2023-03-29T18:12:05.306Z,19.88
2023-03-29T18:14:32.110Z,19.69
2023-03-29T18:16:58.763Z,19.58
2023-03-29T18:19:25.641Z,19.67
2023-03-29T18:21:52.082Z,19.29
2023-03-29T18:24:18.974Z,19.37
2023-03-29T18:26:45.802Z,19.71
2023-03-29T18:29:14.561Z,19.67
2023-03-29T18:31:41.354Z,19.39
2023-03-29T18:34:10.180Z,19.40
2023-03-29T18:36:38.486Z,19.35
2023-03-29T18:39:05.097Z,18.67
2023-03-29T18:41:32.374Z,17.97
2023-03-29T18:43:58.912Z,18.21
2023-03-29T18:46:25.402Z,17.38
2023-03-29T18:48:59.476Z,17.71
2023-03-29T18:51:28.379Z,17.72
2023-03-29T18:53:56.892Z,17.35
2023-03-29T18:56:24.238Z,17.30
2023-03-29T18:58:50.918Z,17.79
2023-03-29T19:01:17.751Z,18.22
2023-03-29T19:03:44.794Z,18.17
2023-03-29T19:06:14.818Z,18.36
2023-03-29T19:08:41.585Z,18.33
2023-03-29T19:11:10.087Z,18.25
2023-03-29T19:13:37.757Z,17.68
2023-03-29T19:18:56.937Z,17.35
2023-03-29T19:21:23.756Z,17.72
2023-03-29T19:23:50.990Z,18.16
2023-03-29T19:26:19.743Z,18.49
2023-03-29T19:28:47.353Z,18.71
2023-03-29T19:31:16.100Z,18.51
2023-03-29T19:33:43.438Z,17.71
2023-03-29T19:36:12.687Z,17.86
2023-03-29T19:38:39.179Z,18.55
2023-03-29T19:41:05.712Z,18.55
2023-03-29T19:43:32.606Z,18.68
2023-03-29T19:45:59.163Z,18.55
2023-03-29T19:48:26.205Z,17.14
2023-03-29T19:50:52.906Z,16.97
2023-03-29T19:56:09.557Z,16.58
2023-03-29T19:58:36.510Z,17.14
2023-03-29T20:01:03.360Z,18.08
2023-03-29T20:03:30.368Z,18.71
2023-03-29T20:05:57.812Z,19.01
2023-03-29T20:08:24.690Z,18.76
2023-03-29T20:10:51.565Z,18.43
2023-03-29T20:13:31.247Z,19.02
2023-03-29T20:16:03.797Z,19.02
2023-03-29T20:18:30.646Z,18.83
2023-03-29T20:20:59.226Z,18.57
2023-03-29T20:23:30.118Z,18.77
2023-03-29T20:25:57.518Z,18.74
2023-03-29T20:28:25.127Z,19.17
2023-03-29T20:30:53.851Z,19.40
2023-03-29T20:33:20.311Z,19.33
2023-03-29T20:35:46.791Z,18.51
2023-03-29T20:38:13.554Z,18.29
2023-03-29T20:40:39.962Z,18.34
2023-03-29T20:43:06.540Z,18.52
2023-03-29T20:45:42.801Z,18.69
2023-03-29T20:48:17.358Z,18.62
2023-03-29T20:50:44.204Z,18.87
2023-03-29T20:53:18.618Z,18.98
2023-03-29T20:55:46.119Z,18.60
2023-03-29T20:58:13.704Z,18.43
2023-03-29T21:00:40.497Z,18.63
2023-03-29T21:03:08.179Z,18.14
2023-03-29T21:05:35.212Z,17.63
2023-03-29T21:08:05.876Z,17.77
2023-03-29T21:10:34.882Z,17.62
2023-03-29T21:13:03.530Z,17.12
2023-03-29T21:15:33.374Z,17.90
2023-03-29T21:20:29.845Z,16.35
2023-03-29T21:22:57.291Z,16.29
2023-03-29T21:25:24.063Z,17.20
2023-03-29T21:27:51.067Z,17.90
2023-03-29T21:30:19.253Z,18.05
2023-03-29T21:32:45.856Z,18.02
2023-03-29T21:35:13.603Z,17.84
2023-03-29T21:37:40.592Z,18.50
2023-03-29T21:40:08.007Z,18.75
2023-03-29T21:42:35.635Z,18.71
2023-03-29T21:45:09.652Z,18.81
2023-03-29T21:47:36.660Z,17.89
2023-03-29T21:50:05.342Z,17.90
2023-03-29T21:52:32.145Z,18.07
2023-03-29T21:55:01.202Z,18.07
2023-03-29T21:57:30.055Z,18.21
2023-03-29T21:59:57.289Z,18.09
2023-03-29T22:02:24.126Z,17.12
2023-03-29T22:04:51.001Z,17.40
2023-03-29T22:07:18.321Z,16.48
2023-03-29T22:09:49.351Z,16.37
2023-03-29T22:12:16.166Z,16.78
2023-03-29T22:14:43.811Z,17.15
2023-03-29T22:17:12.906Z,17.75
2023-03-29T22:19:39.945Z,18.23
2023-03-29T22:22:09.444Z,17.63
2023-03-29T22:24:36.258Z,17.44
2023-03-29T22:27:06.942Z,17.57
2023-03-29T22:29:33.561Z,16.87
2023-03-29T22:32:00.604Z,16.57
2023-03-29T22:34:27.195Z,16.60
2023-03-29T22:36:53.744Z,16.56
2023-03-29T22:39:21.364Z,16.12
2023-03-29T22:41:48.204Z,16.28
2023-03-29T22:44:15.656Z,16.12
2023-03-29T22:46:42.519Z,16.40
2023-03-29T22:49:09.781Z,16.45
2023-03-29T22:51:39.466Z,16.71
2023-03-29T22:54:06.760Z,16.30
2023-03-29T22:56:34.036Z,16.71
2023-03-29T22:59:07.658Z,16.58
2023-03-29T23:01:34.546Z,16.43
2023-03-29T23:04:03.945Z,16.50
2023-03-29T23:06:31.252Z,16.75
2023-03-29T23:08:58.662Z,16.20
2023-03-29T23:11:25.451Z,15.90
2023-03-29T23:13:53.038Z,16.00
2023-03-29T23:16:19.660Z,16.45
2023-03-29T23:18:49.466Z,16.52
2023-03-29T23:21:16.813Z,16.28
2023-03-29T23:23:45.699Z,16.48
2023-03-29T23:26:13.230Z,16.41
2023-03-29T23:28:40.971Z,16.39
2023-03-29T23:31:14.751Z,16.19
2023-03-29T23:33:45.180Z,16.16
2023-03-29T23:36:12.385Z,15.88
2023-03-29T23:38:39.738Z,16.72
2023-03-29T23:41:06.952Z,16.11
2023-03-29T23:43:36.122Z,16.54
2023-03-29T23:46:03.155Z,16.80
2023-03-29T23:48:29.967Z,16.33
2023-03-29T23:50:58.806Z,16.03
2023-03-29T23:53:25.743Z,16.03
2023-03-29T23:55:52.609Z,16.54
2023-03-29T23:58:19.849Z,16.11
